sensor_id;sensor_type;location;lat;lon;timestamp;temperature;humidity
3332;DHT22;1678;50.94845400;5.30809100;2023-01-15T00:00:02;7.00;99.90
3332;DHT22;1678;50.94845400;5.30809100;2023-01-15T00:02:32;6.90;99.90
3332;DHT22;1678;50.94845400;5.30809100;2023-01-15T00:05:01;7.00;99.90
3332;DHT22;1678;50.94845400;5.30809100;2023-01-15T00:07:29;7.00;99.90
3332;DHT22;1678;50.94845400;5.30809100;2023-01-15T00:09:58;7.00;1.00
3332;DHT22;1678;50.94845400;5.30809100;2023-01-15T00:12:26;6.90;1.00
3332;DHT22;1678;50.94845400;5.30809100;2023-01-15T00:14:54;7.10;1.00
3332;DHT22;1678;50.94845400;5.30809100;2023-01-15T00:17:24;6.90;99.90
3332;DHT22;1678;50.94845400;5.30809100;2023-01-15T00:19:53;7.00;1.00
3332;DHT22;1678;50.94845400;5.30809100;2023-01-15T00:22:21;7.00;1.00
3332;DHT22;1678;50.94845400;5.30809100;2023-01-15T00:24:49;6.90;99.90
3332;DHT22;1678;50.94845400;5.30809100;2023-01-15T00:27:35;6.90;1.00
3332;DHT22;1678;50.94845400;5.30809100;2023-01-15T00:30:08;6.90;99.90
3332;DHT22;1678;50.94845400;5.30809100;2023-01-15T00:32:37;6.90;87.70
3332;DHT22;1678;50.94845400;5.30809100;2023-01-15T00:35:10;6.80;99.90
3332;DHT22;1678;50.94845400;5.30809100;2023-01-15T00:37:39;6.90;99.90
3332;DHT22;1678;50.94845400;5.30809100;2023-01-15T00:40:08;6.90;1.00
3332;DHT22;1678;50.94845400;5.30809100;2023-01-15T00:42:36;6.90;1.00
3332;DHT22;1678;50.94845400;5.30809100;2023-01-15T00:45:05;6.90;1.00
3332;DHT22;1678;50.94845400;5.30809100;2023-01-15T00:47:36;6.90;99.90
3332;DHT22;1678;50.94845400;5.30809100;2023-01-15T00:50:08;6.90;99.90
3332;DHT22;1678;50.94845400;5.30809100;2023-01-15T00:52:36;6.90;99.90
3332;DHT22;1678;50.94845400;5.30809100;2023-01-15T00:55:06;6.90;99.90
3332;DHT22;1678;50.94845400;5.30809100;2023-01-15T00:57:34;6.90;1.00
3332;DHT22;1678;50.94845400;5.30809100;2023-01-15T01:00:06;6.90;1.00
3332;DHT22;1678;50.94845400;5.30809100;2023-01-15T01:02:34;7.00;1.00
3332;DHT22;1678;50.94845400;5.30809100;2023-01-15T01:05:02;6.90;1.00
3332;DHT22;1678;50.94845400;5.30809100;2023-01-15T01:07:32;6.90;99.90
3332;DHT22;1678;50.94845400;5.30809100;2023-01-15T01:10:00;7.00;99.90
3332;DHT22;1678;50.94845400;5.30809100;2023-01-15T01:12:28;7.00;99.90
3332;DHT22;1678;50.94845400;5.30809100;2023-01-15T01:14:56;7.00;99.90
3332;DHT22;1678;50.94845400;5.30809100;2023-01-15T01:17:24;7.00;99.90
3332;DHT22;1678;50.94845400;5.30809100;2023-01-15T01:19:52;7.10;99.90
3332;DHT22;1678;50.94845400;5.30809100;2023-01-15T01:22:20;7.10;99.90
3332;DHT22;1678;50.94845400;5.30809100;2023-01-15T01:24:50;7.10;99.90
3332;DHT22;1678;50.94845400;5.30809100;2023-01-15T01:27:18;7.10;1.00
3332;DHT22;1678;50.94845400;5.30809100;2023-01-15T01:29:46;7.10;1.00
3332;DHT22;1678;50.94845400;5.30809100;2023-01-15T01:32:14;7.20;1.00
3332;DHT22;1678;50.94845400;5.30809100;2023-01-15T01:34:42;7.20;1.00
3332;DHT22;1678;50.94845400;5.30809100;2023-01-15T01:37:10;7.20;1.00
3332;DHT22;1678;50.94845400;5.30809100;2023-01-15T01:39:38;7.20;1.00
3332;DHT22;1678;50.94845400;5.30809100;2023-01-15T01:42:11;7.30;1.00
3332;DHT22;1678;50.94845400;5.30809100;2023-01-15T01:45:06;7.30;1.00
3332;DHT22;1678;50.94845400;5.30809100;2023-01-15T01:47:35;7.30;1.40
3332;DHT22;1678;50.94845400;5.30809100;2023-01-15T01:50:07;7.30;99.90
3332;DHT22;1678;50.94845400;5.30809100;2023-01-15T01:52:40;7.30;99.90
3332;DHT22;1678;50.94845400;5.30809100;2023-01-15T01:55:11;7.30;99.90
3332;DHT22;1678;50.94845400;5.30809100;2023-01-15T01:57:42;7.50;99.90
3332;DHT22;1678;50.94845400;5.30809100;2023-01-15T02:00:12;7.40;99.90
3332;DHT22;1678;50.94845400;5.30809100;2023-01-15T02:02:43;7.40;99.90
3332;DHT22;1678;50.94845400;5.30809100;2023-01-15T02:05:17;7.50;99.90
3332;DHT22;1678;50.94845400;5.30809100;2023-01-15T02:07:48;7.40;99.90
3332;DHT22;1678;50.94845400;5.30809100;2023-01-15T02:10:16;7.40;99.90
3332;DHT22;1678;50.94845400;5.30809100;2023-01-15T02:12:50;7.40;99.90
3332;DHT22;1678;50.94845400;5.30809100;2023-01-15T02:15:27;7.30;99.90
3332;DHT22;1678;50.94845400;5.30809100;2023-01-15T02:18:05;7.40;99.90
3332;DHT22;1678;50.94845400;5.30809100;2023-01-15T02:20:38;7.30;99.90
3332;DHT22;1678;50.94845400;5.30809100;2023-01-15T02:23:19;7.50;99.90
3332;DHT22;1678;50.94845400;5.30809100;2023-01-15T02:26:07;7.40;99.90
3332;DHT22;1678;50.94845400;5.30809100;2023-01-15T02:28:43;7.30;99.90
3332;DHT22;1678;50.94845400;5.30809100;2023-01-15T02:31:16;7.50;99.90
3332;DHT22;1678;50.94845400;5.30809100;2023-01-15T02:33:50;7.40;99.90
3332;DHT22;1678;50.94845400;5.30809100;2023-01-15T02:36:23;7.50;99.90
3332;DHT22;1678;50.94845400;5.30809100;2023-01-15T02:38:57;7.50;99.90
3332;DHT22;1678;50.94845400;5.30809100;2023-01-15T02:41:29;7.50;77.10
3332;DHT22;1678;50.94845400;5.30809100;2023-01-15T02:44:01;7.60;7.50
3332;DHT22;1678;50.94845400;5.30809100;2023-01-15T02:46:33;7.70;1.00
3332;DHT22;1678;50.94845400;5.30809100;2023-01-15T02:49:05;7.60;1.00
3332;DHT22;1678;50.94845400;5.30809100;2023-01-15T02:51:38;7.60;1.00
3332;DHT22;1678;50.94845400;5.30809100;2023-01-15T02:54:11;7.60;1.00
3332;DHT22;1678;50.94845400;5.30809100;2023-01-15T02:56:40;7.60;1.00
3332;DHT22;1678;50.94845400;5.30809100;2023-01-15T02:59:17;7.60;1.00
3332;DHT22;1678;50.94845400;5.30809100;2023-01-15T03:01:49;7.50;1.00
3332;DHT22;1678;50.94845400;5.30809100;2023-01-15T03:04:23;7.40;1.00
3332;DHT22;1678;50.94845400;5.30809100;2023-01-15T03:06:59;7.30;5.60
3332;DHT22;1678;50.94845400;5.30809100;2023-01-15T03:09:28;7.30;1.00
3332;DHT22;1678;50.94845400;5.30809100;2023-01-15T03:12:03;7.30;1.00
3332;DHT22;1678;50.94845400;5.30809100;2023-01-15T03:14:37;7.30;41.80
3332;DHT22;1678;50.94845400;5.30809100;2023-01-15T03:17:13;7.30;1.00
3332;DHT22;1678;50.94845400;5.30809100;2023-01-15T03:19:46;7.20;88.70
3332;DHT22;1678;50.94845400;5.30809100;2023-01-15T03:22:18;7.30;1.00
3332;DHT22;1678;50.94845400;5.30809100;2023-01-15T03:24:50;7.20;1.00
3332;DHT22;1678;50.94845400;5.30809100;2023-01-15T03:27:20;7.30;99.90
3332;DHT22;1678;50.94845400;5.30809100;2023-01-15T03:29:53;7.20;1.00
3332;DHT22;1678;50.94845400;5.30809100;2023-01-15T03:32:22;7.20;1.00
3332;DHT22;1678;50.94845400;5.30809100;2023-01-15T03:34:53;7.20;1.00
3332;DHT22;1678;50.94845400;5.30809100;2023-01-15T03:37:24;7.30;1.00
3332;DHT22;1678;50.94845400;5.30809100;2023-01-15T03:39:54;7.20;1.00
3332;DHT22;1678;50.94845400;5.30809100;2023-01-15T03:42:32;7.30;1.00
3332;DHT22;1678;50.94845400;5.30809100;2023-01-15T03:45:10;7.30;1.00
3332;DHT22;1678;50.94845400;5.30809100;2023-01-15T03:47:48;7.40;1.00
3332;DHT22;1678;50.94845400;5.30809100;2023-01-15T03:50:26;7.40;1.00
3332;DHT22;1678;50.94845400;5.30809100;2023-01-15T03:53:01;7.40;1.00
3332;DHT22;1678;50.94845400;5.30809100;2023-01-15T03:55:37;7.40;1.00
3332;DHT22;1678;50.94845400;5.30809100;2023-01-15T03:58:09;7.50;1.00
3332;DHT22;1678;50.94845400;5.30809100;2023-01-15T04:00:44;7.50;99.90
3332;DHT22;1678;50.94845400;5.30809100;2023-01-15T04:03:15;7.50;99.90
3332;DHT22;1678;50.94845400;5.30809100;2023-01-15T04:05:44;7.50;99.90
3332;DHT22;1678;50.94845400;5.30809100;2023-01-15T04:08:13;7.50;99.90
3332;DHT22;1678;50.94845400;5.30809100;2023-01-15T04:10:54;7.60;99.90
3332;DHT22;1678;50.94845400;5.30809100;2023-01-15T04:13:23;7.60;13.90
3332;DHT22;1678;50.94845400;5.30809100;2023-01-15T04:15:52;7.60;1.00
3332;DHT22;1678;50.94845400;5.30809100;2023-01-15T04:18:21;7.60;1.00
3332;DHT22;1678;50.94845400;5.30809100;2023-01-15T04:20:50;7.50;3.40
3332;DHT22;1678;50.94845400;5.30809100;2023-01-15T04:23:18;7.50;1.00
3332;DHT22;1678;50.94845400;5.30809100;2023-01-15T04:25:46;7.50;1.00
3332;DHT22;1678;50.94845400;5.30809100;2023-01-15T04:28:14;7.50;1.00
3332;DHT22;1678;50.94845400;5.30809100;2023-01-15T04:30:42;7.50;1.00
3332;DHT22;1678;50.94845400;5.30809100;2023-01-15T04:33:12;7.50;1.00
3332;DHT22;1678;50.94845400;5.30809100;2023-01-15T04:35:40;7.50;99.90
3332;DHT22;1678;50.94845400;5.30809100;2023-01-15T04:38:08;7.50;99.90
3332;DHT22;1678;50.94845400;5.30809100;2023-01-15T04:40:36;7.50;99.90
3332;DHT22;1678;50.94845400;5.30809100;2023-01-15T04:43:21;7.50;99.90
3332;DHT22;1678;50.94845400;5.30809100;2023-01-15T04:46:07;7.50;47.20
3332;DHT22;1678;50.94845400;5.30809100;2023-01-15T04:48:37;7.50;1.00
3332;DHT22;1678;50.94845400;5.30809100;2023-01-15T04:51:06;7.50;41.10
3332;DHT22;1678;50.94845400;5.30809100;2023-01-15T04:53:34;7.50;91.40
3332;DHT22;1678;50.94845400;5.30809100;2023-01-15T04:56:03;7.40;1.00
3332;DHT22;1678;50.94845400;5.30809100;2023-01-15T04:58:33;7.50;1.00
3332;DHT22;1678;50.94845400;5.30809100;2023-01-15T05:01:01;7.40;1.00
3332;DHT22;1678;50.94845400;5.30809100;2023-01-15T05:03:32;7.40;1.00
3332;DHT22;1678;50.94845400;5.30809100;2023-01-15T05:06:02;7.40;1.00
3332;DHT22;1678;50.94845400;5.30809100;2023-01-15T05:08:31;7.40;1.00
3332;DHT22;1678;50.94845400;5.30809100;2023-01-15T05:11:01;7.40;2.60
3332;DHT22;1678;50.94845400;5.30809100;2023-01-15T05:13:29;7.30;99.90
3332;DHT22;1678;50.94845400;5.30809100;2023-01-15T05:16:10;7.30;1.00
3332;DHT22;1678;50.94845400;5.30809100;2023-01-15T05:18:39;7.30;27.50
3332;DHT22;1678;50.94845400;5.30809100;2023-01-15T05:21:14;7.30;99.90
3332;DHT22;1678;50.94845400;5.30809100;2023-01-15T05:23:43;7.30;1.00
3332;DHT22;1678;50.94845400;5.30809100;2023-01-15T05:26:12;7.30;1.00
3332;DHT22;1678;50.94845400;5.30809100;2023-01-15T05:28:40;7.30;99.90
3332;DHT22;1678;50.94845400;5.30809100;2023-01-15T05:31:09;7.30;1.00
3332;DHT22;1678;50.94845400;5.30809100;2023-01-15T05:33:39;7.20;1.00
3332;DHT22;1678;50.94845400;5.30809100;2023-01-15T05:36:09;7.30;1.00
3332;DHT22;1678;50.94845400;5.30809100;2023-01-15T05:38:39;7.30;1.00
3332;DHT22;1678;50.94845400;5.30809100;2023-01-15T05:41:10;7.20;24.20
3332;DHT22;1678;50.94845400;5.30809100;2023-01-15T05:43:53;7.20;1.00
3332;DHT22;1678;50.94845400;5.30809100;2023-01-15T05:46:21;7.20;37.50
3332;DHT22;1678;50.94845400;5.30809100;2023-01-15T05:48:50;7.20;76.70
3332;DHT22;1678;50.94845400;5.30809100;2023-01-15T05:51:18;7.20;99.90
3332;DHT22;1678;50.94845400;5.30809100;2023-01-15T05:53:48;7.20;1.00
3332;DHT22;1678;50.94845400;5.30809100;2023-01-15T05:56:16;7.20;1.00
3332;DHT22;1678;50.94845400;5.30809100;2023-01-15T05:58:44;7.20;1.00
3332;DHT22;1678;50.94845400;5.30809100;2023-01-15T06:01:12;7.20;67.20
3332;DHT22;1678;50.94845400;5.30809100;2023-01-15T06:03:40;7.10;93.90
3332;DHT22;1678;50.94845400;5.30809100;2023-01-15T06:06:12;7.20;1.00
3332;DHT22;1678;50.94845400;5.30809100;2023-01-15T06:08:40;7.20;1.00
3332;DHT22;1678;50.94845400;5.30809100;2023-01-15T06:11:10;7.10;1.00
3332;DHT22;1678;50.94845400;5.30809100;2023-01-15T06:13:39;7.10;1.40
3332;DHT22;1678;50.94845400;5.30809100;2023-01-15T06:16:08;7.10;1.00
3332;DHT22;1678;50.94845400;5.30809100;2023-01-15T06:18:37;7.10;99.90
3332;DHT22;1678;50.94845400;5.30809100;2023-01-15T06:21:07;7.10;99.90
3332;DHT22;1678;50.94845400;5.30809100;2023-01-15T06:23:37;7.10;99.90
3332;DHT22;1678;50.94845400;5.30809100;2023-01-15T06:26:07;7.10;99.90
3332;DHT22;1678;50.94845400;5.30809100;2023-01-15T06:28:37;7.10;99.90
3332;DHT22;1678;50.94845400;5.30809100;2023-01-15T06:31:05;7.10;1.00
3332;DHT22;1678;50.94845400;5.30809100;2023-01-15T06:33:34;7.10;99.90
3332;DHT22;1678;50.94845400;5.30809100;2023-01-15T06:36:03;7.00;1.00
3332;DHT22;1678;50.94845400;5.30809100;2023-01-15T06:38:32;7.00;1.00
3332;DHT22;1678;50.94845400;5.30809100;2023-01-15T06:41:01;7.00;1.00
3332;DHT22;1678;50.94845400;5.30809100;2023-01-15T06:43:29;7.00;1.00
3332;DHT22;1678;50.94845400;5.30809100;2023-01-15T06:46:16;6.90;99.90
3332;DHT22;1678;50.94845400;5.30809100;2023-01-15T06:49:01;6.90;1.00
3332;DHT22;1678;50.94845400;5.30809100;2023-01-15T06:51:29;6.80;99.90
3332;DHT22;1678;50.94845400;5.30809100;2023-01-15T06:53:57;6.80;1.00
3332;DHT22;1678;50.94845400;5.30809100;2023-01-15T06:56:25;6.70;42.50
3332;DHT22;1678;50.94845400;5.30809100;2023-01-15T06:58:53;6.70;1.00
3332;DHT22;1678;50.94845400;5.30809100;2023-01-15T07:01:23;6.60;99.90
3332;DHT22;1678;50.94845400;5.30809100;2023-01-15T07:03:56;6.40;1.00
3332;DHT22;1678;50.94845400;5.30809100;2023-01-15T07:06:24;6.40;1.00
3332;DHT22;1678;50.94845400;5.30809100;2023-01-15T07:08:52;6.30;99.90
3332;DHT22;1678;50.94845400;5.30809100;2023-01-15T07:11:20;6.20;99.90
3332;DHT22;1678;50.94845400;5.30809100;2023-01-15T07:13:48;6.20;99.90
3332;DHT22;1678;50.94845400;5.30809100;2023-01-15T07:16:17;6.10;99.90
3332;DHT22;1678;50.94845400;5.30809100;2023-01-15T07:18:55;5.90;99.90
3332;DHT22;1678;50.94845400;5.30809100;2023-01-15T07:21:24;5.90;1.00
3332;DHT22;1678;50.94845400;5.30809100;2023-01-15T07:23:52;5.90;99.90
3332;DHT22;1678;50.94845400;5.30809100;2023-01-15T07:26:20;5.80;99.90
3332;DHT22;1678;50.94845400;5.30809100;2023-01-15T07:28:49;5.80;99.90
3332;DHT22;1678;50.94845400;5.30809100;2023-01-15T07:31:17;5.80;99.90
3332;DHT22;1678;50.94845400;5.30809100;2023-01-15T07:33:45;5.90;99.90
3332;DHT22;1678;50.94845400;5.30809100;2023-01-15T07:36:14;5.90;99.90
3332;DHT22;1678;50.94845400;5.30809100;2023-01-15T07:38:42;5.90;99.90
3332;DHT22;1678;50.94845400;5.30809100;2023-01-15T07:41:11;5.90;99.90
3332;DHT22;1678;50.94845400;5.30809100;2023-01-15T07:43:56;5.90;99.90
3332;DHT22;1678;50.94845400;5.30809100;2023-01-15T07:46:42;5.90;99.90
3332;DHT22;1678;50.94845400;5.30809100;2023-01-15T07:49:27;5.90;99.90
3332;DHT22;1678;50.94845400;5.30809100;2023-01-15T07:52:17;5.90;1.00
3332;DHT22;1678;50.94845400;5.30809100;2023-01-15T07:54:49;5.80;1.00
3332;DHT22;1678;50.94845400;5.30809100;2023-01-15T07:57:19;5.80;18.50
3332;DHT22;1678;50.94845400;5.30809100;2023-01-15T07:59:48;5.80;1.00
3332;DHT22;1678;50.94845400;5.30809100;2023-01-15T08:02:17;5.90;1.00
3332;DHT22;1678;50.94845400;5.30809100;2023-01-15T08:04:46;5.90;99.90
3332;DHT22;1678;50.94845400;5.30809100;2023-01-15T08:07:16;5.90;99.90
3332;DHT22;1678;50.94845400;5.30809100;2023-01-15T08:09:44;5.90;99.90
3332;DHT22;1678;50.94845400;5.30809100;2023-01-15T08:12:12;6.00;99.90
3332;DHT22;1678;50.94845400;5.30809100;2023-01-15T08:14:57;6.00;70.20
3332;DHT22;1678;50.94845400;5.30809100;2023-01-15T08:17:41;6.00;17.90
3332;DHT22;1678;50.94845400;5.30809100;2023-01-15T08:20:12;6.00;1.00
3332;DHT22;1678;50.94845400;5.30809100;2023-01-15T08:22:42;6.10;1.00
3332;DHT22;1678;50.94845400;5.30809100;2023-01-15T08:25:12;6.10;99.90
3332;DHT22;1678;50.94845400;5.30809100;2023-01-15T08:27:41;6.00;99.90
3332;DHT22;1678;50.94845400;5.30809100;2023-01-15T08:30:11;6.10;99.90
3332;DHT22;1678;50.94845400;5.30809100;2023-01-15T08:32:40;6.00;99.90
3332;DHT22;1678;50.94845400;5.30809100;2023-01-15T08:35:09;6.00;1.00
3332;DHT22;1678;50.94845400;5.30809100;2023-01-15T08:37:38;6.00;99.90
3332;DHT22;1678;50.94845400;5.30809100;2023-01-15T08:40:10;6.00;99.90
3332;DHT22;1678;50.94845400;5.30809100;2023-01-15T08:42:38;6.00;60.50
3332;DHT22;1678;50.94845400;5.30809100;2023-01-15T08:45:07;6.10;1.00
3332;DHT22;1678;50.94845400;5.30809100;2023-01-15T08:47:36;6.10;1.00
3332;DHT22;1678;50.94845400;5.30809100;2023-01-15T08:50:04;6.20;1.00
3332;DHT22;1678;50.94845400;5.30809100;2023-01-15T08:52:34;6.20;1.00
3332;DHT22;1678;50.94845400;5.30809100;2023-01-15T08:55:04;6.20;1.00
3332;DHT22;1678;50.94845400;5.30809100;2023-01-15T08:57:34;6.30;99.90
3332;DHT22;1678;50.94845400;5.30809100;2023-01-15T09:00:05;6.30;99.90
3332;DHT22;1678;50.94845400;5.30809100;2023-01-15T09:02:33;6.30;99.90
3332;DHT22;1678;50.94845400;5.30809100;2023-01-15T09:05:01;6.40;19.90
3332;DHT22;1678;50.94845400;5.30809100;2023-01-15T09:07:30;6.40;1.00
3332;DHT22;1678;50.94845400;5.30809100;2023-01-15T09:09:58;6.40;99.90
3332;DHT22;1678;50.94845400;5.30809100;2023-01-15T09:12:26;6.40;1.00
3332;DHT22;1678;50.94845400;5.30809100;2023-01-15T09:14:56;6.50;99.90
3332;DHT22;1678;50.94845400;5.30809100;2023-01-15T09:17:29;6.50;8.20
3332;DHT22;1678;50.94845400;5.30809100;2023-01-15T09:19:58;6.50;99.90
3332;DHT22;1678;50.94845400;5.30809100;2023-01-15T09:22:26;6.60;99.90
3332;DHT22;1678;50.94845400;5.30809100;2023-01-15T09:24:57;6.60;1.00
3332;DHT22;1678;50.94845400;5.30809100;2023-01-15T09:27:25;6.70;1.00
3332;DHT22;1678;50.94845400;5.30809100;2023-01-15T09:29:53;6.70;99.90
3332;DHT22;1678;50.94845400;5.30809100;2023-01-15T09:32:23;6.80;99.90
3332;DHT22;1678;50.94845400;5.30809100;2023-01-15T09:34:51;6.70;1.00
3332;DHT22;1678;50.94845400;5.30809100;2023-01-15T09:37:19;6.70;1.00
3332;DHT22;1678;50.94845400;5.30809100;2023-01-15T09:39:47;6.80;1.00
3332;DHT22;1678;50.94845400;5.30809100;2023-01-15T09:42:32;6.80;1.00
3332;DHT22;1678;50.94845400;5.30809100;2023-01-15T09:45:14;6.90;99.90
3332;DHT22;1678;50.94845400;5.30809100;2023-01-15T09:50:54;6.90;99.90
3332;DHT22;1678;50.94845400;5.30809100;2023-01-15T09:53:52;6.90;1.00
3332;DHT22;1678;50.94845400;5.30809100;2023-01-15T09:56:25;6.90;99.90
3332;DHT22;1678;50.94845400;5.30809100;2023-01-15T09:58:55;7.00;99.90
3332;DHT22;1678;50.94845400;5.30809100;2023-01-15T10:01:26;7.00;99.90
3332;DHT22;1678;50.94845400;5.30809100;2023-01-15T10:04:00;7.10;35.80
3332;DHT22;1678;50.94845400;5.30809100;2023-01-15T10:06:34;7.10;1.00
3332;DHT22;1678;50.94845400;5.30809100;2023-01-15T10:09:11;7.10;99.90
3332;DHT22;1678;50.94845400;5.30809100;2023-01-15T10:11:43;7.20;99.90
3332;DHT22;1678;50.94845400;5.30809100;2023-01-15T10:14:44;7.20;99.90
3332;DHT22;1678;50.94845400;5.30809100;2023-01-15T10:17:20;7.20;11.00
3332;DHT22;1678;50.94845400;5.30809100;2023-01-15T10:19:51;7.20;99.90
3332;DHT22;1678;50.94845400;5.30809100;2023-01-15T10:22:31;7.30;1.00
3332;DHT22;1678;50.94845400;5.30809100;2023-01-15T10:25:11;7.30;1.00
3332;DHT22;1678;50.94845400;5.30809100;2023-01-15T10:27:45;7.30;1.00
3332;DHT22;1678;50.94845400;5.30809100;2023-01-15T10:30:16;7.30;1.00
3332;DHT22;1678;50.94845400;5.30809100;2023-01-15T10:32:45;7.30;1.00
3332;DHT22;1678;50.94845400;5.30809100;2023-01-15T10:35:39;7.40;1.00
3332;DHT22;1678;50.94845400;5.30809100;2023-01-15T10:38:18;7.30;99.90
3332;DHT22;1678;50.94845400;5.30809100;2023-01-15T10:41:16;7.20;99.90
3332;DHT22;1678;50.94845400;5.30809100;2023-01-15T10:43:53;7.10;71.10
3332;DHT22;1678;50.94845400;5.30809100;2023-01-15T10:46:24;7.00;99.90
3332;DHT22;1678;50.94845400;5.30809100;2023-01-15T10:48:56;7.00;99.90
3332;DHT22;1678;50.94845400;5.30809100;2023-01-15T10:51:29;7.00;99.90
3332;DHT22;1678;50.94845400;5.30809100;2023-01-15T10:54:04;7.20;99.90
3332;DHT22;1678;50.94845400;5.30809100;2023-01-15T10:56:37;7.20;69.80
3332;DHT22;1678;50.94845400;5.30809100;2023-01-15T10:59:14;7.30;1.00
3332;DHT22;1678;50.94845400;5.30809100;2023-01-15T11:01:43;7.30;41.30
3332;DHT22;1678;50.94845400;5.30809100;2023-01-15T11:04:12;7.20;1.00
3332;DHT22;1678;50.94845400;5.30809100;2023-01-15T11:06:41;7.10;1.00
3332;DHT22;1678;50.94845400;5.30809100;2023-01-15T11:09:22;7.10;1.00
3332;DHT22;1678;50.94845400;5.30809100;2023-01-15T11:12:04;7.00;99.90
3332;DHT22;1678;50.94845400;5.30809100;2023-01-15T11:14:50;6.90;99.90
3332;DHT22;1678;50.94845400;5.30809100;2023-01-15T11:17:39;6.80;99.90
3332;DHT22;1678;50.94845400;5.30809100;2023-01-15T11:20:28;6.80;99.90
3332;DHT22;1678;50.94845400;5.30809100;2023-01-15T11:23:06;7.00;99.90
3332;DHT22;1678;50.94845400;5.30809100;2023-01-15T11:25:34;7.10;99.90
3332;DHT22;1678;50.94845400;5.30809100;2023-01-15T11:28:06;7.10;99.90
3332;DHT22;1678;50.94845400;5.30809100;2023-01-15T11:30:36;7.20;99.90
3332;DHT22;1678;50.94845400;5.30809100;2023-01-15T11:33:20;7.10;99.90
3332;DHT22;1678;50.94845400;5.30809100;2023-01-15T11:35:50;7.20;99.90
3332;DHT22;1678;50.94845400;5.30809100;2023-01-15T11:38:20;7.40;99.90
3332;DHT22;1678;50.94845400;5.30809100;2023-01-15T11:40:53;7.30;99.90
3332;DHT22;1678;50.94845400;5.30809100;2023-01-15T11:43:23;7.40;99.90
3332;DHT22;1678;50.94845400;5.30809100;2023-01-15T11:46:27;7.50;68.20
3332;DHT22;1678;50.94845400;5.30809100;2023-01-15T11:49:17;7.60;1.00
3332;DHT22;1678;50.94845400;5.30809100;2023-01-15T11:52:05;7.60;1.00
3332;DHT22;1678;50.94845400;5.30809100;2023-01-15T11:54:40;7.60;99.90
3332;DHT22;1678;50.94845400;5.30809100;2023-01-15T11:57:09;7.70;99.90
3332;DHT22;1678;50.94845400;5.30809100;2023-01-15T11:59:37;8.00;99.90
3332;DHT22;1678;50.94845400;5.30809100;2023-01-15T12:02:15;8.00;99.90
3332;DHT22;1678;50.94845400;5.30809100;2023-01-15T12:04:48;7.90;99.90
3332;DHT22;1678;50.94845400;5.30809100;2023-01-15T12:07:19;8.00;1.00
3332;DHT22;1678;50.94845400;5.30809100;2023-01-15T12:10:15;8.10;1.00
3332;DHT22;1678;50.94845400;5.30809100;2023-01-15T12:12:56;7.90;1.00
3332;DHT22;1678;50.94845400;5.30809100;2023-01-15T12:15:36;7.90;1.00
3332;DHT22;1678;50.94845400;5.30809100;2023-01-15T12:18:24;7.90;1.00
3332;DHT22;1678;50.94845400;5.30809100;2023-01-15T12:21:01;8.00;1.00
3332;DHT22;1678;50.94845400;5.30809100;2023-01-15T12:23:55;8.10;99.90
3332;DHT22;1678;50.94845400;5.30809100;2023-01-15T12:26:30;8.20;99.90
3332;DHT22;1678;50.94845400;5.30809100;2023-01-15T12:29:04;8.20;99.90
3332;DHT22;1678;50.94845400;5.30809100;2023-01-15T12:31:37;8.20;99.90
3332;DHT22;1678;50.94845400;5.30809100;2023-01-15T12:34:15;8.30;14.20
3332;DHT22;1678;50.94845400;5.30809100;2023-01-15T12:36:50;8.40;3.70
3332;DHT22;1678;50.94845400;5.30809100;2023-01-15T12:39:21;8.20;1.00
3332;DHT22;1678;50.94845400;5.30809100;2023-01-15T12:41:56;8.10;1.00
3332;DHT22;1678;50.94845400;5.30809100;2023-01-15T12:44:46;8.20;1.00
3332;DHT22;1678;50.94845400;5.30809100;2023-01-15T12:47:39;8.00;1.00
3332;DHT22;1678;50.94845400;5.30809100;2023-01-15T12:50:31;7.90;1.00
3332;DHT22;1678;50.94845400;5.30809100;2023-01-15T12:53:09;7.90;1.00
3332;DHT22;1678;50.94845400;5.30809100;2023-01-15T12:55:41;7.90;1.00
3332;DHT22;1678;50.94845400;5.30809100;2023-01-15T12:58:20;7.90;1.00
3332;DHT22;1678;50.94845400;5.30809100;2023-01-15T13:00:57;8.00;1.00
3332;DHT22;1678;50.94845400;5.30809100;2023-01-15T13:03:33;8.00;46.80
3332;DHT22;1678;50.94845400;5.30809100;2023-01-15T13:06:06;8.00;55.50
3332;DHT22;1678;50.94845400;5.30809100;2023-01-15T13:08:39;8.00;99.90
3332;DHT22;1678;50.94845400;5.30809100;2023-01-15T13:11:12;8.00;1.00
3332;DHT22;1678;50.94845400;5.30809100;2023-01-15T13:13:43;7.90;99.90
3332;DHT22;1678;50.94845400;5.30809100;2023-01-15T13:16:39;8.00;99.90
3332;DHT22;1678;50.94845400;5.30809100;2023-01-15T13:19:22;8.00;99.90
3332;DHT22;1678;50.94845400;5.30809100;2023-01-15T13:21:55;7.90;99.90
3332;DHT22;1678;50.94845400;5.30809100;2023-01-15T13:24:56;7.90;1.00
3332;DHT22;1678;50.94845400;5.30809100;2023-01-15T13:27:41;7.90;1.00
3332;DHT22;1678;50.94845400;5.30809100;2023-01-15T13:30:28;8.00;1.00
3332;DHT22;1678;50.94845400;5.30809100;2023-01-15T13:33:07;7.90;24.70
3332;DHT22;1678;50.94845400;5.30809100;2023-01-15T13:35:43;8.00;1.00
3332;DHT22;1678;50.94845400;5.30809100;2023-01-15T13:38:17;8.00;1.00
3332;DHT22;1678;50.94845400;5.30809100;2023-01-15T13:40:48;8.10;90.60
3332;DHT22;1678;50.94845400;5.30809100;2023-01-15T13:43:27;8.10;21.10
3332;DHT22;1678;50.94845400;5.30809100;2023-01-15T13:45:59;8.00;1.00
3332;DHT22;1678;50.94845400;5.30809100;2023-01-15T13:48:33;8.00;1.00
3332;DHT22;1678;50.94845400;5.30809100;2023-01-15T13:51:04;8.00;1.00
3332;DHT22;1678;50.94845400;5.30809100;2023-01-15T13:53:35;8.10;1.00
3332;DHT22;1678;50.94845400;5.30809100;2023-01-15T13:56:06;8.00;1.00
3332;DHT22;1678;50.94845400;5.30809100;2023-01-15T13:58:38;8.10;1.00
3332;DHT22;1678;50.94845400;5.30809100;2023-01-15T14:01:23;8.00;1.00
3332;DHT22;1678;50.94845400;5.30809100;2023-01-15T14:03:59;8.10;1.00
3332;DHT22;1678;50.94845400;5.30809100;2023-01-15T14:06:40;8.00;1.00
3332;DHT22;1678;50.94845400;5.30809100;2023-01-15T14:09:10;8.00;1.00
3332;DHT22;1678;50.94845400;5.30809100;2023-01-15T14:11:46;8.00;8.70
3332;DHT22;1678;50.94845400;5.30809100;2023-01-15T14:14:44;8.00;1.00
3332;DHT22;1678;50.94845400;5.30809100;2023-01-15T14:17:42;7.90;1.00
3332;DHT22;1678;50.94845400;5.30809100;2023-01-15T14:20:44;7.90;58.70
3332;DHT22;1678;50.94845400;5.30809100;2023-01-15T14:23:37;7.90;99.90
3332;DHT22;1678;50.94845400;5.30809100;2023-01-15T14:26:13;7.90;56.80
3332;DHT22;1678;50.94845400;5.30809100;2023-01-15T14:28:56;7.90;99.90
3332;DHT22;1678;50.94845400;5.30809100;2023-01-15T14:31:45;7.90;99.90
3332;DHT22;1678;50.94845400;5.30809100;2023-01-15T14:34:21;7.90;99.90
3332;DHT22;1678;50.94845400;5.30809100;2023-01-15T14:36:55;7.80;99.90
3332;DHT22;1678;50.94845400;5.30809100;2023-01-15T14:39:32;7.80;1.00
3332;DHT22;1678;50.94845400;5.30809100;2023-01-15T14:42:06;7.70;99.90